createdAt,value
2018-05-14T00:01:36.245Z,14.67
2018-05-14T00:04:03.370Z,14.62
2018-05-14T00:06:30.170Z,14.53
2018-05-14T00:08:56.551Z,14.33
2018-05-14T00:11:22.882Z,14.41
2018-05-14T00:13:49.315Z,14.38
2018-05-14T00:16:15.722Z,14.26
2018-05-14T00:18:42.762Z,14.24
2018-05-14T00:21:09.222Z,14.23
2018-05-14T00:23:35.526Z,14.17
2018-05-14T00:26:01.905Z,14.24
2018-05-14T00:28:28.954Z,14.20
2018-05-14T00:30:56.007Z,14.13
2018-05-14T00:33:22.349Z,14.14
2018-05-14T00:35:48.681Z,13.99
2018-05-14T00:38:15.018Z,13.93
2018-05-14T00:40:41.318Z,13.84
2018-05-14T00:43:08.535Z,13.80
2018-05-14T00:45:34.831Z,13.82
2018-05-14T00:48:01.210Z,13.89
2018-05-14T00:50:27.571Z,13.65
2018-05-14T00:52:53.912Z,13.73
2018-05-14T00:55:20.225Z,13.68
2018-05-14T00:57:46.553Z,13.62
2018-05-14T01:00:12.903Z,13.70
2018-05-14T01:02:39.222Z,13.69
2018-05-14T01:05:05.640Z,13.58
2018-05-14T01:07:32.693Z,13.45
2018-05-14T01:09:59.010Z,13.54
2018-05-14T01:12:26.076Z,13.43
2018-05-14T01:14:52.537Z,13.35
2018-05-14T01:17:18.769Z,13.33
2018-05-14T01:19:45.082Z,13.42
2018-05-14T01:22:11.395Z,13.43
2018-05-14T01:24:37.755Z,13.32
2018-05-14T01:27:04.107Z,13.25
2018-05-14T01:29:30.480Z,13.46
2018-05-14T01:31:56.783Z,13.36
2018-05-14T01:34:23.837Z,13.47
2018-05-14T01:36:50.880Z,13.34
2018-05-14T01:39:17.957Z,13.35
2018-05-14T01:41:44.278Z,13.38
2018-05-14T01:44:10.715Z,13.38
2018-05-14T01:46:37.309Z,13.45
2018-05-14T01:49:03.656Z,13.47
2018-05-14T01:51:30.725Z,13.37
2018-05-14T01:53:57.014Z,13.33
2018-05-14T01:56:23.381Z,13.29
2018-05-14T01:58:49.685Z,13.44
2018-05-14T02:01:16.777Z,13.48
2018-05-14T02:03:43.076Z,13.54
2018-05-14T02:06:10.156Z,13.59
2018-05-14T02:08:36.446Z,13.41
2018-05-14T02:11:03.529Z,13.50
2018-05-14T02:13:29.860Z,13.46
2018-05-14T02:15:56.177Z,13.41
2018-05-14T02:18:22.464Z,13.33
2018-05-14T02:20:49.529Z,13.42
2018-05-14T02:23:16.603Z,13.38
2018-05-14T02:25:42.932Z,13.30
2018-05-14T02:28:09.267Z,13.29
2018-05-14T02:30:35.589Z,13.40
2018-05-14T02:33:01.920Z,13.29
2018-05-14T02:35:28.261Z,13.12
2018-05-14T02:37:54.582Z,13.19
2018-05-14T02:40:20.896Z,13.14
2018-05-14T02:42:47.204Z,13.23
2018-05-14T02:45:14.290Z,13.30
2018-05-14T02:47:40.626Z,13.25
2018-05-14T02:50:06.987Z,13.32
2018-05-14T02:52:33.347Z,13.19
2018-05-14T02:55:00.539Z,13.28
2018-05-14T02:57:26.915Z,13.24
2018-05-14T02:59:54.013Z,13.15
2018-05-14T03:02:20.438Z,13.27
2018-05-14T03:04:46.820Z,13.44
2018-05-14T03:07:13.122Z,13.10
2018-05-14T03:09:39.483Z,13.10
2018-05-14T03:12:05.826Z,13.06
2018-05-14T03:14:32.194Z,13.04
2018-05-14T03:16:58.522Z,13.03
2018-05-14T03:19:24.857Z,13.01
2018-05-14T03:21:51.242Z,13.13
2018-05-14T03:24:18.359Z,13.24
2018-05-14T03:26:45.246Z,13.25
2018-05-14T03:29:11.546Z,13.31
2018-05-14T03:31:37.879Z,13.20
2018-05-14T03:34:04.172Z,13.23
2018-05-14T03:36:30.476Z,13.08
2018-05-14T03:38:56.796Z,13.12
2018-05-14T03:41:23.165Z,13.22
2018-05-14T03:43:49.474Z,13.23
2018-05-14T03:46:15.836Z,13.16
2018-05-14T03:48:42.196Z,13.10
2018-05-14T03:51:09.273Z,13.13
2018-05-14T03:53:35.681Z,13.18
2018-05-14T03:56:02.779Z,13.15
2018-05-14T04:01:53.644Z,13.22
2018-05-14T04:04:39.066Z,13.21
2018-05-14T04:07:05.438Z,13.13
2018-05-14T04:09:31.754Z,13.08
2018-05-14T04:11:58.059Z,13.07
2018-05-14T04:14:24.410Z,13.09
2018-05-14T04:16:50.962Z,13.22
2018-05-14T04:19:18.192Z,13.14
2018-05-14T04:21:44.538Z,13.26
2018-05-14T04:24:10.895Z,13.24
2018-05-14T04:26:37.310Z,13.16
2018-05-14T04:29:04.475Z,13.23
2018-05-14T04:31:30.800Z,13.22
2018-05-14T04:33:57.930Z,13.45
2018-05-14T04:36:25.035Z,13.30
2018-05-14T04:38:51.389Z,13.47
2018-05-14T04:41:17.729Z,13.46
2018-05-14T04:43:44.090Z,13.45
2018-05-14T04:46:11.213Z,13.46
2018-05-14T04:48:37.533Z,13.48
2018-05-14T04:51:05.779Z,13.65
2018-05-14T04:53:32.189Z,13.56
2018-05-14T04:55:58.477Z,13.64
2018-05-14T04:58:24.774Z,13.61
2018-05-14T05:00:51.231Z,13.57
2018-05-14T05:03:17.542Z,13.54
2018-05-14T05:05:43.874Z,13.77
2018-05-14T05:08:10.288Z,13.70
2018-05-14T05:10:36.828Z,13.81
2018-05-14T05:13:03.123Z,13.66
2018-05-14T05:15:29.459Z,13.72
2018-05-14T05:17:55.850Z,13.69
2018-05-14T05:20:22.127Z,13.62
2018-05-14T05:22:48.550Z,13.60
2018-05-14T05:25:14.993Z,13.65
2018-05-14T05:27:41.395Z,13.61
2018-05-14T05:30:08.518Z,13.54
2018-05-14T05:32:34.858Z,13.77
2018-05-14T05:35:01.953Z,13.91
2018-05-14T05:37:28.362Z,13.96
2018-05-14T05:39:54.717Z,13.95
2018-05-14T05:42:21.130Z,13.89
2018-05-14T05:44:47.474Z,13.98
2018-05-14T05:47:13.790Z,13.82
2018-05-14T05:49:40.306Z,13.64
2018-05-14T05:52:07.565Z,13.59
2018-05-14T05:54:34.705Z,13.85
2018-05-14T05:57:01.756Z,13.66
2018-05-14T05:59:28.853Z,13.68
2018-05-14T06:01:55.151Z,13.93
2018-05-14T06:04:21.480Z,13.94
2018-05-14T06:06:47.811Z,13.85
2018-05-14T06:09:14.145Z,13.78
2018-05-14T06:11:40.452Z,13.78
2018-05-14T06:14:07.612Z,13.92
2018-05-14T06:16:33.954Z,13.87
2018-05-14T06:19:00.290Z,14.02
2018-05-14T06:21:26.717Z,14.07
2018-05-14T06:23:57.143Z,14.18
2018-05-14T06:26:23.464Z,14.12
2018-05-14T06:28:49.770Z,14.23
2018-05-14T06:31:16.914Z,14.26
2018-05-14T06:33:44.001Z,14.39
2018-05-14T06:36:10.337Z,14.63
2018-05-14T06:38:36.690Z,14.78
2018-05-14T06:41:03.065Z,14.84
2018-05-14T06:43:29.405Z,15.09
2018-05-14T06:45:55.759Z,14.88
2018-05-14T06:48:22.071Z,14.94
2018-05-14T06:50:48.596Z,14.93
2018-05-14T06:53:14.938Z,14.63
2018-05-14T06:55:41.296Z,14.72
2018-05-14T06:58:07.623Z,14.58
2018-05-14T07:00:34.020Z,14.42
2018-05-14T07:03:00.285Z,14.70
2018-05-14T07:05:26.653Z,14.55
2018-05-14T07:07:53.734Z,14.72
2018-05-14T07:10:20.173Z,14.70
2018-05-14T07:12:46.658Z,14.56
2018-05-14T07:15:13.723Z,14.57
2018-05-14T07:17:40.786Z,14.70
2018-05-14T07:20:07.123Z,14.88
2018-05-14T07:22:33.498Z,14.87
2018-05-14T07:24:59.829Z,14.96
2018-05-14T07:27:26.214Z,15.10
2018-05-14T07:29:52.750Z,15.10
2018-05-14T07:32:19.089Z,15.13
2018-05-14T07:34:45.526Z,15.26
2018-05-14T07:37:12.582Z,15.14
2018-05-14T07:39:38.984Z,15.11
2018-05-14T07:42:05.867Z,15.22
2018-05-14T07:44:32.229Z,15.49
2018-05-14T07:46:58.600Z,15.40
2018-05-14T07:49:24.972Z,15.08
2018-05-14T07:51:51.302Z,15.22
2018-05-14T07:54:17.700Z,15.22
2018-05-14T07:56:44.121Z,15.11
2018-05-14T07:59:10.494Z,14.97
2018-05-14T08:01:36.989Z,14.85
2018-05-14T08:04:03.428Z,14.84
2018-05-14T08:06:30.077Z,14.88
2018-05-14T08:08:56.398Z,14.95
2018-05-14T08:11:22.755Z,15.07
2018-05-14T08:13:49.253Z,14.93
2018-05-14T08:16:15.472Z,15.15
2018-05-14T08:18:41.826Z,15.34
2018-05-14T08:21:08.149Z,15.16
2018-05-14T08:23:35.275Z,15.22
2018-05-14T08:26:01.639Z,15.30
2018-05-14T08:28:28.035Z,15.23
2018-05-14T08:30:54.338Z,15.08
2018-05-14T08:33:21.436Z,15.08
2018-05-14T08:35:47.793Z,14.93
2018-05-14T08:38:14.141Z,15.02
2018-05-14T08:40:41.240Z,15.15
2018-05-14T08:43:07.565Z,15.43
2018-05-14T08:45:33.880Z,15.36
2018-05-14T08:48:00.361Z,15.67
2018-05-14T08:50:26.663Z,15.75
2018-05-14T08:52:52.998Z,15.98
2018-05-14T08:55:19.456Z,15.96
2018-05-14T08:57:45.743Z,16.04
2018-05-14T09:00:12.591Z,15.76
2018-05-14T09:02:38.921Z,15.90
2018-05-14T09:05:05.258Z,16.05
2018-05-14T09:07:31.696Z,15.96
2018-05-14T09:09:58.064Z,15.91
2018-05-14T09:12:25.283Z,16.22
2018-05-14T09:14:51.591Z,16.17
2018-05-14T09:17:17.937Z,16.15
2018-05-14T09:19:44.349Z,16.40
2018-05-14T09:22:10.693Z,16.05
2018-05-14T09:24:37.047Z,16.01
2018-05-14T09:27:04.137Z,16.38
2018-05-14T09:29:30.591Z,16.30
2018-05-14T09:31:56.956Z,16.40
2018-05-14T09:34:24.027Z,16.40
2018-05-14T09:36:50.383Z,16.39
2018-05-14T09:39:16.926Z,16.52
2018-05-14T09:41:43.543Z,16.58
2018-05-14T09:44:09.977Z,16.82
2018-05-14T09:46:36.331Z,16.76
2018-05-14T09:49:02.716Z,16.61
2018-05-14T09:51:29.799Z,16.49
2018-05-14T09:53:56.137Z,16.50
2018-05-14T09:56:22.551Z,16.33
2018-05-14T09:58:48.894Z,16.27
2018-05-14T10:01:15.230Z,16.18
2018-05-14T10:03:42.574Z,16.15
2018-05-14T10:06:08.915Z,16.22
2018-05-14T10:08:35.298Z,16.17
2018-05-14T10:11:01.640Z,16.13
2018-05-14T10:13:28.046Z,16.18
2018-05-14T10:15:55.120Z,16.43
2018-05-14T10:18:21.415Z,16.66
2018-05-14T10:20:47.920Z,16.58
2018-05-14T10:23:14.274Z,16.77
2018-05-14T10:25:41.369Z,16.86
2018-05-14T10:28:07.756Z,16.84
2018-05-14T10:30:34.179Z,16.72
2018-05-14T10:33:00.601Z,16.88
2018-05-14T10:35:27.099Z,17.01
2018-05-14T10:37:53.455Z,17.00
2018-05-14T10:40:19.801Z,17.14
2018-05-14T10:42:46.195Z,17.23
2018-05-14T10:45:12.528Z,17.22
2018-05-14T10:47:38.886Z,16.97
2018-05-14T10:50:05.207Z,16.95
2018-05-14T10:52:31.561Z,16.90
2018-05-14T10:54:58.638Z,17.07
2018-05-14T10:57:25.014Z,17.30
2018-05-14T10:59:51.365Z,17.34
2018-05-14T11:02:17.693Z,17.29
2018-05-14T11:04:44.070Z,17.67
2018-05-14T11:07:10.414Z,17.76
2018-05-14T11:09:36.822Z,17.77
2018-05-14T11:12:03.161Z,17.99
2018-05-14T11:14:29.607Z,18.16
2018-05-14T11:16:55.927Z,17.99
2018-05-14T11:19:22.355Z,18.69
2018-05-14T11:21:48.710Z,19.10
2018-05-14T11:24:15.798Z,19.46
2018-05-14T11:26:42.874Z,19.77
2018-05-14T11:29:09.225Z,19.87
2018-05-14T11:31:36.324Z,19.24
2018-05-14T11:34:03.442Z,19.07
2018-05-14T11:36:29.733Z,19.24
2018-05-14T11:38:56.073Z,19.29
2018-05-14T11:41:22.418Z,19.69
2018-05-14T11:43:48.758Z,19.94
2018-05-14T11:46:15.071Z,19.74
2018-05-14T11:48:41.391Z,20.70
2018-05-14T11:51:07.750Z,20.70
2018-05-14T11:53:34.080Z,20.50
2018-05-14T11:56:00.413Z,20.52
2018-05-14T11:58:27.072Z,20.28
2018-05-14T12:00:53.551Z,20.09
2018-05-14T12:03:19.912Z,19.92
2018-05-14T12:05:46.244Z,19.76
2018-05-14T12:08:12.553Z,19.44
2018-05-14T12:10:38.918Z,19.63
2018-05-14T12:13:05.266Z,19.57
2018-05-14T12:15:32.444Z,19.95
2018-05-14T12:17:58.762Z,20.30
2018-05-14T12:20:25.111Z,21.11
2018-05-14T12:22:52.122Z,21.11
2018-05-14T12:25:19.198Z,21.03
2018-05-14T12:27:45.482Z,20.72
2018-05-14T12:30:12.579Z,20.83
2018-05-14T12:32:38.896Z,21.18
2018-05-14T12:35:05.300Z,21.22
2018-05-14T12:37:32.480Z,21.78
2018-05-14T12:39:58.804Z,21.95
2018-05-14T12:42:25.168Z,21.85
2018-05-14T12:44:51.544Z,21.73
2018-05-14T12:47:18.663Z,22.01
2018-05-14T12:49:44.972Z,22.09
2018-05-14T12:52:11.319Z,22.12
2018-05-14T12:54:37.626Z,22.39
2018-05-14T12:57:04.003Z,22.29
2018-05-14T12:59:31.105Z,22.29
2018-05-14T13:01:57.439Z,22.66
2018-05-14T13:04:23.798Z,22.94
2018-05-14T13:06:50.123Z,22.57
2018-05-14T13:09:16.520Z,22.52
2018-05-14T13:11:42.994Z,22.26
2018-05-14T13:14:10.130Z,22.81
2018-05-14T13:16:36.589Z,23.04
2018-05-14T13:19:03.717Z,23.27
2018-05-14T13:21:37.063Z,22.90
2018-05-14T13:24:03.457Z,22.73
2018-05-14T13:26:30.613Z,22.40
2018-05-14T13:28:57.753Z,22.47
2018-05-14T13:31:24.870Z,22.22
2018-05-14T13:33:51.190Z,22.03
2018-05-14T13:36:17.553Z,21.99
2018-05-14T13:38:44.717Z,21.87
2018-05-14T13:41:11.853Z,21.69
2018-05-14T13:43:38.941Z,21.87
2018-05-14T13:46:05.344Z,22.05
2018-05-14T13:48:32.484Z,21.76
2018-05-14T13:50:58.934Z,21.69
2018-05-14T13:53:25.982Z,21.65
2018-05-14T13:55:52.388Z,21.41
2018-05-14T13:58:18.713Z,21.22
2018-05-14T14:00:45.084Z,21.20
2018-05-14T14:03:11.442Z,21.27
2018-05-14T14:05:38.327Z,21.25
2018-05-14T14:08:05.408Z,21.36
2018-05-14T14:10:31.739Z,21.92
2018-05-14T14:12:58.066Z,22.30
2018-05-14T14:15:24.530Z,22.53
2018-05-14T14:17:50.859Z,22.57
2018-05-14T14:20:17.245Z,22.88
2018-05-14T14:22:43.660Z,23.49
2018-05-14T14:25:10.800Z,23.74
2018-05-14T14:27:37.186Z,23.73
2018-05-14T14:30:03.619Z,23.85
2018-05-14T14:32:29.957Z,23.41
2018-05-14T14:34:56.281Z,23.43
2018-05-14T14:37:22.606Z,23.28
2018-05-14T14:39:49.028Z,23.36
2018-05-14T14:42:15.483Z,23.13
2018-05-14T14:44:42.013Z,23.04
2018-05-14T14:47:08.663Z,23.10
2018-05-14T14:49:35.030Z,22.71
2018-05-14T14:52:01.538Z,21.93
2018-05-14T14:54:27.947Z,21.82
2018-05-14T14:56:54.262Z,19.63
2018-05-14T14:59:20.701Z,17.68
2018-05-14T15:01:47.324Z,17.52
2018-05-14T15:04:13.699Z,17.40
2018-05-14T15:06:40.053Z,17.11
2018-05-14T15:09:07.168Z,17.23
2018-05-14T15:11:33.530Z,17.31
2018-05-14T15:14:00.719Z,17.34
2018-05-14T15:16:27.113Z,17.23
2018-05-14T15:18:54.374Z,17.15
2018-05-14T15:21:20.726Z,17.29
2018-05-14T15:23:47.056Z,17.25
2018-05-14T15:26:13.462Z,17.29
2018-05-14T15:28:39.837Z,17.32
2018-05-14T15:31:06.202Z,17.26
2018-05-14T15:33:32.587Z,17.24
2018-05-14T15:35:58.976Z,17.34
2018-05-14T15:38:26.095Z,17.21
2018-05-14T15:40:53.298Z,17.32
2018-05-14T15:43:19.631Z,17.38
2018-05-14T15:45:46.508Z,17.40
2018-05-14T15:48:13.784Z,17.49
2018-05-14T15:50:40.927Z,17.44
2018-05-14T15:53:08.163Z,17.58
2018-05-14T15:55:34.798Z,17.58
2018-05-14T15:58:01.216Z,17.55
2018-05-14T16:00:27.600Z,17.65
2018-05-14T16:02:54.755Z,17.63
2018-05-14T16:05:21.221Z,17.69
2018-05-14T16:07:48.147Z,17.50
2018-05-14T16:10:14.569Z,17.67
2018-05-14T16:12:40.951Z,17.60
2018-05-14T16:15:08.499Z,17.80
2018-05-14T16:17:34.906Z,17.89
2018-05-14T16:20:02.068Z,17.87
2018-05-14T16:22:28.465Z,17.84
2018-05-14T16:24:54.862Z,17.82
2018-05-14T16:27:22.063Z,17.87
2018-05-14T16:29:48.559Z,17.95
2018-05-14T16:32:15.708Z,18.05
2018-05-14T16:34:42.510Z,18.13
2018-05-14T16:37:09.097Z,18.05
2018-05-14T16:39:39.888Z,18.20
2018-05-14T16:42:07.027Z,18.11
2018-05-14T16:44:33.435Z,18.15
2018-05-14T16:46:59.850Z,18.17
2018-05-14T16:49:26.401Z,18.15
2018-05-14T16:51:53.307Z,18.13
2018-05-14T16:54:19.983Z,18.33
2018-05-14T16:56:46.482Z,18.13
2018-05-14T16:59:13.066Z,18.03
2018-05-14T17:01:39.507Z,17.97
2018-05-14T17:04:06.002Z,18.08
2018-05-14T17:06:33.178Z,17.81
2018-05-14T17:08:59.656Z,17.78
2018-05-14T17:11:26.086Z,17.84
2018-05-14T17:13:52.508Z,17.77
2018-05-14T17:16:19.081Z,17.66
2018-05-14T17:18:45.851Z,17.68
2018-05-14T17:21:12.399Z,17.67
2018-05-14T17:23:38.936Z,17.69
2018-05-14T17:26:05.340Z,17.58
2018-05-14T17:28:31.903Z,17.48
2018-05-14T17:30:58.508Z,17.59
2018-05-14T17:33:25.055Z,17.53
2018-05-14T17:35:51.522Z,17.42
2018-05-14T17:38:17.918Z,17.48
2018-05-14T17:40:44.401Z,17.32
2018-05-14T17:43:11.643Z,17.41
2018-05-14T17:45:38.918Z,17.35
2018-05-14T17:48:05.350Z,17.37
2018-05-14T17:50:31.917Z,17.35
2018-05-14T17:52:58.608Z,17.35
2018-05-14T17:55:24.988Z,17.28
2018-05-14T17:57:51.550Z,17.14
2018-05-14T18:00:18.072Z,17.11
2018-05-14T18:02:45.526Z,17.17
2018-05-14T18:05:12.163Z,17.33
2018-05-14T18:07:39.260Z,17.27
2018-05-14T18:10:05.749Z,17.29
2018-05-14T18:12:32.263Z,17.23
2018-05-14T18:14:59.148Z,17.15
2018-05-14T18:17:25.928Z,17.11
2018-05-14T18:19:58.561Z,17.09
2018-05-14T18:22:25.067Z,17.08
2018-05-14T18:24:51.663Z,17.05
2018-05-14T18:27:25.195Z,17.07
2018-05-14T18:29:53.677Z,17.00
2018-05-14T18:32:20.263Z,17.00
2018-05-14T18:34:46.974Z,17.03
2018-05-14T18:37:13.567Z,17.00
2018-05-14T18:39:40.134Z,17.03
2018-05-14T18:42:06.650Z,16.90
2018-05-14T18:44:33.238Z,16.78
2018-05-14T18:46:59.923Z,16.62
2018-05-14T18:49:26.506Z,16.58
2018-05-14T18:51:53.900Z,16.50
2018-05-14T18:54:20.523Z,16.45
2018-05-14T18:56:47.143Z,16.35
2018-05-14T18:59:13.727Z,16.35
2018-05-14T19:01:40.270Z,16.32
2018-05-14T19:04:06.898Z,16.26
2018-05-14T19:06:37.839Z,16.23
2018-05-14T19:09:04.838Z,16.17
2018-05-14T19:11:37.612Z,16.22
2018-05-14T19:14:04.518Z,16.18
2018-05-14T19:16:41.309Z,16.22
2018-05-14T19:19:08.047Z,16.18
2018-05-14T19:21:34.642Z,16.37
2018-05-14T19:24:01.199Z,16.38
2018-05-14T19:26:27.758Z,16.28
2018-05-14T19:29:00.257Z,16.24
2018-05-14T19:31:26.778Z,16.34
2018-05-14T19:33:59.298Z,16.23
2018-05-14T19:36:25.705Z,16.30
2018-05-14T19:38:52.051Z,16.33
2018-05-14T19:41:18.454Z,16.33
2018-05-14T19:43:45.062Z,16.31
2018-05-14T19:46:11.554Z,16.29
2018-05-14T19:48:38.244Z,16.24
2018-05-14T19:51:06.601Z,16.28
2018-05-14T19:53:33.080Z,16.42
2018-05-14T19:55:59.446Z,16.55
2018-05-14T19:58:25.925Z,16.41
2018-05-14T20:00:52.302Z,16.22
2018-05-14T20:03:18.798Z,16.27
2018-05-14T20:05:45.223Z,16.27
2018-05-14T20:08:12.358Z,16.18
2018-05-14T20:10:39.544Z,16.30
2018-05-14T20:13:05.947Z,16.36
2018-05-14T20:15:33.164Z,16.31
2018-05-14T20:18:03.597Z,16.21
2018-05-14T20:20:30.034Z,16.37
2018-05-14T20:22:56.431Z,16.42
2018-05-14T20:25:22.822Z,16.39
2018-05-14T20:27:49.969Z,16.30
2018-05-14T20:30:17.178Z,16.21
2018-05-14T20:32:43.587Z,16.09
2018-05-14T20:35:10.014Z,16.01
2018-05-14T20:37:36.418Z,16.02
2018-05-14T20:40:03.618Z,16.07
2018-05-14T20:42:29.997Z,16.12
2018-05-14T20:44:57.103Z,16.03
2018-05-14T20:47:23.507Z,16.07
2018-05-14T20:49:49.951Z,16.14
2018-05-14T20:52:16.402Z,16.14
2018-05-14T20:54:42.785Z,16.13
2018-05-14T20:57:09.142Z,16.26
2018-05-14T20:59:35.521Z,16.28
2018-05-14T21:02:02.000Z,16.32
2018-05-14T21:04:28.402Z,16.33
2018-05-14T21:06:54.869Z,16.29
2018-05-14T21:09:21.262Z,16.19
2018-05-14T21:11:47.722Z,16.18
2018-05-14T21:14:14.259Z,16.20
2018-05-14T21:16:40.902Z,16.11
2018-05-14T21:19:07.247Z,16.20
2018-05-14T21:21:33.648Z,16.25
2018-05-14T21:24:00.063Z,16.44
2018-05-14T21:26:26.478Z,16.39
2018-05-14T21:28:53.589Z,16.52
2018-05-14T21:31:20.075Z,16.51
2018-05-14T21:33:47.298Z,16.41
2018-05-14T21:36:13.679Z,16.36
2018-05-14T21:38:40.036Z,16.23
2018-05-14T21:41:06.450Z,16.08
2018-05-14T21:43:32.774Z,16.08
2018-05-14T21:45:59.103Z,16.11
2018-05-14T21:48:25.436Z,16.14
2018-05-14T21:50:51.818Z,16.22
2018-05-14T21:53:18.599Z,16.20
2018-05-14T21:55:45.166Z,16.14
2018-05-14T21:58:11.675Z,16.10
2018-05-14T22:00:38.058Z,16.14
2018-05-14T22:03:04.428Z,16.13
2018-05-14T22:05:30.889Z,16.26
2018-05-14T22:07:57.240Z,16.27
2018-05-14T22:10:23.592Z,16.27
2018-05-14T22:12:50.724Z,16.25
2018-05-14T22:15:17.113Z,16.23
2018-05-14T22:17:43.444Z,16.21
2018-05-14T22:20:09.836Z,16.10
2018-05-14T22:22:36.219Z,16.05
2018-05-14T22:25:02.567Z,16.11
2018-05-14T22:27:38.546Z,16.09
2018-05-14T22:30:09.022Z,16.25
2018-05-14T22:32:36.520Z,16.23
2018-05-14T22:35:07.771Z,16.22
2018-05-14T22:37:34.137Z,16.34
2018-05-14T22:40:00.568Z,16.20
2018-05-14T22:42:26.959Z,16.14
2018-05-14T22:44:53.323Z,16.21
2018-05-14T22:47:19.777Z,16.40
2018-05-14T22:49:46.132Z,16.25
2018-05-14T22:52:12.502Z,16.20
2018-05-14T22:54:38.846Z,16.11
2018-05-14T22:57:05.186Z,16.15
2018-05-14T22:59:32.328Z,15.89
2018-05-14T23:01:58.682Z,15.86
2018-05-14T23:04:25.777Z,15.85
2018-05-14T23:06:52.899Z,15.73
2018-05-14T23:09:19.267Z,15.63
2018-05-14T23:11:45.602Z,15.65
2018-05-14T23:14:11.976Z,15.56
2018-05-14T23:16:38.349Z,15.53
2018-05-14T23:19:05.455Z,15.41
2018-05-14T23:21:31.845Z,15.48
2018-05-14T23:23:58.223Z,15.33
2018-05-14T23:26:25.680Z,15.28
2018-05-14T23:28:52.032Z,15.16
2018-05-14T23:31:21.269Z,15.12
2018-05-14T23:33:47.645Z,15.06
2018-05-14T23:36:13.993Z,15.12
2018-05-14T23:38:40.323Z,15.06
2018-05-14T23:41:11.907Z,15.08
2018-05-14T23:43:38.617Z,15.08
2018-05-14T23:46:05.770Z,15.25
2018-05-14T23:48:32.918Z,15.06
2018-05-14T23:51:00.006Z,15.10
2018-05-14T23:53:26.408Z,14.95
2018-05-14T23:55:52.764Z,14.95
2018-05-14T23:58:19.163Z,14.94
